sensor_id;sensor_type;location;lat;lon;timestamp;P1;durP1;ratioP1;P2;durP2;ratioP2
9960;SDS011;5021;51.506;11.320;2023-02-18T00:01:19;4.10;;;2.00;;
9960;SDS011;5021;51.506;11.320;2023-02-18T00:03:45;2.57;;;1.80;;
9960;SDS011;5021;51.506;11.320;2023-02-18T00:06:12;6.27;;;2.00;;
9960;SDS011;5021;51.506;11.320;2023-02-18T00:08:38;4.47;;;2.07;;
9960;SDS011;5021;51.506;11.320;2023-02-18T00:11:05;4.97;;;2.33;;
9960;SDS011;5021;51.506;11.320;2023-02-18T00:13:31;5.77;;;2.17;;
9960;SDS011;5021;51.506;11.320;2023-02-18T00:16:04;4.60;;;1.90;;
9960;SDS011;5021;51.506;11.320;2023-02-18T00:18:30;5.53;;;2.53;;
9960;SDS011;5021;51.506;11.320;2023-02-18T00:20:56;8.33;;;2.30;;
9960;SDS011;5021;51.506;11.320;2023-02-18T00:23:22;5.20;;;2.00;;
9960;SDS011;5021;51.506;11.320;2023-02-18T00:25:48;5.20;;;2.17;;
9960;SDS011;5021;51.506;11.320;2023-02-18T00:28:14;5.03;;;2.03;;
9960;SDS011;5021;51.506;11.320;2023-02-18T00:30:40;7.00;;;2.60;;
9960;SDS011;5021;51.506;11.320;2023-02-18T00:33:07;7.00;;;2.13;;
9960;SDS011;5021;51.506;11.320;2023-02-18T00:35:33;5.80;;;2.23;;
9960;SDS011;5021;51.506;11.320;2023-02-18T00:37:59;4.90;;;2.00;;
9960;SDS011;5021;51.506;11.320;2023-02-18T00:40:25;5.77;;;2.30;;
9960;SDS011;5021;51.506;11.320;2023-02-18T00:42:51;6.43;;;2.20;;
9960;SDS011;5021;51.506;11.320;2023-02-18T00:45:16;6.90;;;2.37;;
9960;SDS011;5021;51.506;11.320;2023-02-18T00:47:42;4.07;;;1.97;;
9960;SDS011;5021;51.506;11.320;2023-02-18T00:50:09;6.30;;;2.27;;
9960;SDS011;5021;51.506;11.320;2023-02-18T00:52:35;5.77;;;2.10;;
9960;SDS011;5021;51.506;11.320;2023-02-18T00:55:01;6.63;;;2.30;;
9960;SDS011;5021;51.506;11.320;2023-02-18T00:57:27;4.53;;;1.80;;
9960;SDS011;5021;51.506;11.320;2023-02-18T00:59:53;5.40;;;2.33;;
9960;SDS011;5021;51.506;11.320;2023-02-18T01:02:18;8.07;;;2.50;;
9960;SDS011;5021;51.506;11.320;2023-02-18T01:04:44;7.00;;;2.57;;
9960;SDS011;5021;51.506;11.320;2023-02-18T01:07:10;6.93;;;2.20;;
9960;SDS011;5021;51.506;11.320;2023-02-18T01:09:36;9.00;;;3.07;;
9960;SDS011;5021;51.506;11.320;2023-02-18T01:12:02;4.30;;;2.40;;
9960;SDS011;5021;51.506;11.320;2023-02-18T01:14:29;8.03;;;2.70;;
9960;SDS011;5021;51.506;11.320;2023-02-18T01:16:54;5.17;;;2.60;;
9960;SDS011;5021;51.506;11.320;2023-02-18T01:19:20;6.57;;;2.43;;
9960;SDS011;5021;51.506;11.320;2023-02-18T01:21:46;4.60;;;2.00;;
9960;SDS011;5021;51.506;11.320;2023-02-18T01:24:12;6.53;;;2.33;;
9960;SDS011;5021;51.506;11.320;2023-02-18T01:26:38;7.10;;;2.87;;
9960;SDS011;5021;51.506;11.320;2023-02-18T01:29:04;7.63;;;2.70;;
9960;SDS011;5021;51.506;11.320;2023-02-18T01:31:30;7.17;;;2.50;;
9960;SDS011;5021;51.506;11.320;2023-02-18T01:33:56;7.93;;;2.87;;
9960;SDS011;5021;51.506;11.320;2023-02-18T01:36:22;9.97;;;2.60;;
9960;SDS011;5021;51.506;11.320;2023-02-18T01:38:48;6.97;;;2.80;;
9960;SDS011;5021;51.506;11.320;2023-02-18T01:41:14;5.67;;;2.80;;
9960;SDS011;5021;51.506;11.320;2023-02-18T01:43:40;5.80;;;2.60;;
9960;SDS011;5021;51.506;11.320;2023-02-18T01:48:33;4.93;;;2.70;;
9960;SDS011;5021;51.506;11.320;2023-02-18T01:53:50;6.87;;;2.70;;
9960;SDS011;5021;51.506;11.320;2023-02-18T01:59:02;8.83;;;2.70;;
9960;SDS011;5021;51.506;11.320;2023-02-18T02:01:30;8.70;;;3.37;;
9960;SDS011;5021;51.506;11.320;2023-02-18T02:03:57;4.70;;;2.27;;
9960;SDS011;5021;51.506;11.320;2023-02-18T02:06:23;7.57;;;2.83;;
9960;SDS011;5021;51.506;11.320;2023-02-18T02:08:50;6.70;;;2.37;;
9960;SDS011;5021;51.506;11.320;2023-02-18T02:13:58;6.43;;;2.70;;
9960;SDS011;5021;51.506;11.320;2023-02-18T02:19:19;5.67;;;2.80;;
9960;SDS011;5021;51.506;11.320;2023-02-18T02:27:10;5.43;;;2.53;;
9960;SDS011;5021;51.506;11.320;2023-02-18T02:42:53;9.40;;;3.00;;
9960;SDS011;5021;51.506;11.320;2023-02-18T02:48:12;6.17;;;2.33;;
9960;SDS011;5021;51.506;11.320;2023-02-18T02:50:44;5.10;;;2.47;;
9960;SDS011;5021;51.506;11.320;2023-02-18T02:53:20;6.40;;;2.50;;
9960;SDS011;5021;51.506;11.320;2023-02-18T02:55:47;7.13;;;2.63;;
9960;SDS011;5021;51.506;11.320;2023-02-18T02:58:14;8.97;;;2.70;;
9960;SDS011;5021;51.506;11.320;2023-02-18T03:00:44;5.10;;;2.20;;
9960;SDS011;5021;51.506;11.320;2023-02-18T03:03:17;8.93;;;3.30;;
9960;SDS011;5021;51.506;11.320;2023-02-18T03:06:00;7.73;;;2.90;;
9960;SDS011;5021;51.506;11.320;2023-02-18T03:08:35;7.50;;;2.67;;
9960;SDS011;5021;51.506;11.320;2023-02-18T03:11:05;6.40;;;2.63;;
9960;SDS011;5021;51.506;11.320;2023-02-18T03:13:50;9.00;;;2.67;;
9960;SDS011;5021;51.506;11.320;2023-02-18T03:16:30;5.13;;;2.33;;
9960;SDS011;5021;51.506;11.320;2023-02-18T03:19:01;8.87;;;2.93;;
9960;SDS011;5021;51.506;11.320;2023-02-18T03:21:34;4.00;;;2.40;;
9960;SDS011;5021;51.506;11.320;2023-02-18T03:24:06;6.97;;;2.80;;
9960;SDS011;5021;51.506;11.320;2023-02-18T03:26:33;7.47;;;2.77;;
9960;SDS011;5021;51.506;11.320;2023-02-18T03:29:02;8.07;;;2.80;;
9960;SDS011;5021;51.506;11.320;2023-02-18T03:31:29;6.43;;;3.17;;
9960;SDS011;5021;51.506;11.320;2023-02-18T03:34:00;5.50;;;2.60;;
9960;SDS011;5021;51.506;11.320;2023-02-18T03:36:27;7.63;;;2.63;;
9960;SDS011;5021;51.506;11.320;2023-02-18T03:38:55;9.43;;;2.70;;
9960;SDS011;5021;51.506;11.320;2023-02-18T03:41:23;12.53;;;3.40;;
9960;SDS011;5021;51.506;11.320;2023-02-18T03:43:51;6.00;;;2.90;;
9960;SDS011;5021;51.506;11.320;2023-02-18T03:46:17;8.83;;;3.20;;
9960;SDS011;5021;51.506;11.320;2023-02-18T03:48:44;9.03;;;2.77;;
9960;SDS011;5021;51.506;11.320;2023-02-18T03:51:10;8.03;;;3.10;;
9960;SDS011;5021;51.506;11.320;2023-02-18T03:53:36;6.47;;;2.90;;
9960;SDS011;5021;51.506;11.320;2023-02-18T03:56:02;4.23;;;2.83;;
9960;SDS011;5021;51.506;11.320;2023-02-18T03:58:28;8.10;;;3.47;;
9960;SDS011;5021;51.506;11.320;2023-02-18T04:00:54;6.10;;;3.23;;
9960;SDS011;5021;51.506;11.320;2023-02-18T04:03:20;6.43;;;3.20;;
9960;SDS011;5021;51.506;11.320;2023-02-18T04:05:45;8.80;;;3.33;;
9960;SDS011;5021;51.506;11.320;2023-02-18T04:08:12;8.87;;;3.57;;
9960;SDS011;5021;51.506;11.320;2023-02-18T04:10:38;8.43;;;3.53;;
9960;SDS011;5021;51.506;11.320;2023-02-18T04:13:04;6.53;;;3.50;;
9960;SDS011;5021;51.506;11.320;2023-02-18T04:15:30;5.83;;;3.00;;
9960;SDS011;5021;51.506;11.320;2023-02-18T04:17:56;8.37;;;3.80;;
9960;SDS011;5021;51.506;11.320;2023-02-18T04:20:22;8.40;;;3.87;;
9960;SDS011;5021;51.506;11.320;2023-02-18T04:22:48;8.93;;;3.83;;
9960;SDS011;5021;51.506;11.320;2023-02-18T04:25:13;8.47;;;4.07;;
9960;SDS011;5021;51.506;11.320;2023-02-18T04:27:39;9.00;;;3.37;;
9960;SDS011;5021;51.506;11.320;2023-02-18T04:30:06;8.50;;;4.17;;
9960;SDS011;5021;51.506;11.320;2023-02-18T04:32:32;10.47;;;4.27;;
9960;SDS011;5021;51.506;11.320;2023-02-18T04:34:57;11.63;;;4.93;;
9960;SDS011;5021;51.506;11.320;2023-02-18T04:37:23;9.97;;;4.70;;
9960;SDS011;5021;51.506;11.320;2023-02-18T04:39:49;8.97;;;4.40;;
9960;SDS011;5021;51.506;11.320;2023-02-18T04:42:15;10.37;;;5.00;;
9960;SDS011;5021;51.506;11.320;2023-02-18T04:44:41;12.10;;;5.53;;
9960;SDS011;5021;51.506;11.320;2023-02-18T04:47:07;10.23;;;5.37;;
9960;SDS011;5021;51.506;11.320;2023-02-18T04:49:33;11.07;;;5.27;;
9960;SDS011;5021;51.506;11.320;2023-02-18T04:51:59;8.43;;;4.43;;
9960;SDS011;5021;51.506;11.320;2023-02-18T04:54:25;7.13;;;3.63;;
9960;SDS011;5021;51.506;11.320;2023-02-18T04:56:51;7.67;;;3.63;;
9960;SDS011;5021;51.506;11.320;2023-02-18T04:59:17;7.10;;;3.33;;
9960;SDS011;5021;51.506;11.320;2023-02-18T05:01:43;10.90;;;3.57;;
9960;SDS011;5021;51.506;11.320;2023-02-18T05:04:09;8.13;;;3.77;;
9960;SDS011;5021;51.506;11.320;2023-02-18T05:06:35;8.80;;;3.43;;
9960;SDS011;5021;51.506;11.320;2023-02-18T05:09:03;9.27;;;3.13;;
9960;SDS011;5021;51.506;11.320;2023-02-18T05:11:29;5.87;;;3.50;;
9960;SDS011;5021;51.506;11.320;2023-02-18T05:13:55;7.40;;;3.10;;
9960;SDS011;5021;51.506;11.320;2023-02-18T05:16:21;10.90;;;3.73;;
9960;SDS011;5021;51.506;11.320;2023-02-18T05:18:47;7.13;;;4.10;;
9960;SDS011;5021;51.506;11.320;2023-02-18T05:21:12;8.77;;;3.63;;
9960;SDS011;5021;51.506;11.320;2023-02-18T05:23:38;10.83;;;4.40;;
9960;SDS011;5021;51.506;11.320;2023-02-18T05:26:04;7.80;;;4.07;;
9960;SDS011;5021;51.506;11.320;2023-02-18T05:28:30;8.70;;;3.90;;
9960;SDS011;5021;51.506;11.320;2023-02-18T05:30:56;9.53;;;4.47;;
9960;SDS011;5021;51.506;11.320;2023-02-18T05:33:22;9.23;;;3.97;;
9960;SDS011;5021;51.506;11.320;2023-02-18T05:35:48;7.47;;;4.23;;
9960;SDS011;5021;51.506;11.320;2023-02-18T05:38:14;9.87;;;4.47;;
9960;SDS011;5021;51.506;11.320;2023-02-18T05:40:40;10.17;;;4.47;;
9960;SDS011;5021;51.506;11.320;2023-02-18T05:43:06;9.23;;;4.43;;
9960;SDS011;5021;51.506;11.320;2023-02-18T05:45:32;10.33;;;4.50;;
9960;SDS011;5021;51.506;11.320;2023-02-18T05:47:58;10.00;;;4.87;;
9960;SDS011;5021;51.506;11.320;2023-02-18T05:50:24;11.83;;;4.67;;
9960;SDS011;5021;51.506;11.320;2023-02-18T05:52:50;11.67;;;4.93;;
9960;SDS011;5021;51.506;11.320;2023-02-18T05:55:15;10.10;;;5.70;;
9960;SDS011;5021;51.506;11.320;2023-02-18T05:57:41;11.63;;;5.40;;
9960;SDS011;5021;51.506;11.320;2023-02-18T06:00:07;8.30;;;5.20;;
9960;SDS011;5021;51.506;11.320;2023-02-18T06:02:34;9.07;;;5.10;;
9960;SDS011;5021;51.506;11.320;2023-02-18T06:05:00;12.00;;;5.30;;
9960;SDS011;5021;51.506;11.320;2023-02-18T06:07:26;14.23;;;5.87;;
9960;SDS011;5021;51.506;11.320;2023-02-18T06:09:52;12.20;;;6.20;;
9960;SDS011;5021;51.506;11.320;2023-02-18T06:12:18;10.20;;;4.70;;
9960;SDS011;5021;51.506;11.320;2023-02-18T06:14:44;9.67;;;5.43;;
9960;SDS011;5021;51.506;11.320;2023-02-18T06:17:10;8.87;;;5.50;;
9960;SDS011;5021;51.506;11.320;2023-02-18T06:19:37;9.73;;;5.70;;
9960;SDS011;5021;51.506;11.320;2023-02-18T06:22:03;10.10;;;4.97;;
9960;SDS011;5021;51.506;11.320;2023-02-18T06:24:29;8.43;;;5.27;;
9960;SDS011;5021;51.506;11.320;2023-02-18T06:26:55;10.50;;;6.10;;
9960;SDS011;5021;51.506;11.320;2023-02-18T06:29:21;13.23;;;5.53;;
9960;SDS011;5021;51.506;11.320;2023-02-18T06:31:47;9.67;;;5.10;;
9960;SDS011;5021;51.506;11.320;2023-02-18T06:34:13;10.30;;;5.90;;
9960;SDS011;5021;51.506;11.320;2023-02-18T06:36:39;8.17;;;5.00;;
9960;SDS011;5021;51.506;11.320;2023-02-18T06:39:05;7.97;;;5.13;;
9960;SDS011;5021;51.506;11.320;2023-02-18T06:41:31;9.90;;;5.77;;
9960;SDS011;5021;51.506;11.320;2023-02-18T06:43:57;8.83;;;6.00;;
9960;SDS011;5021;51.506;11.320;2023-02-18T06:46:23;10.80;;;6.13;;
9960;SDS011;5021;51.506;11.320;2023-02-18T06:48:49;9.87;;;6.30;;
9960;SDS011;5021;51.506;11.320;2023-02-18T06:51:15;9.60;;;6.33;;
9960;SDS011;5021;51.506;11.320;2023-02-18T06:53:43;9.27;;;5.83;;
9960;SDS011;5021;51.506;11.320;2023-02-18T06:56:09;9.63;;;5.90;;
9960;SDS011;5021;51.506;11.320;2023-02-18T06:58:35;9.53;;;5.83;;
9960;SDS011;5021;51.506;11.320;2023-02-18T07:01:01;10.37;;;7.20;;
9960;SDS011;5021;51.506;11.320;2023-02-18T07:03:27;10.90;;;7.33;;
9960;SDS011;5021;51.506;11.320;2023-02-18T07:05:53;10.37;;;6.97;;
9960;SDS011;5021;51.506;11.320;2023-02-18T07:08:19;10.30;;;6.77;;
9960;SDS011;5021;51.506;11.320;2023-02-18T07:10:45;11.43;;;7.60;;
9960;SDS011;5021;51.506;11.320;2023-02-18T07:13:11;13.17;;;8.80;;
9960;SDS011;5021;51.506;11.320;2023-02-18T07:15:37;12.30;;;8.27;;
9960;SDS011;5021;51.506;11.320;2023-02-18T07:18:03;11.30;;;7.33;;
9960;SDS011;5021;51.506;11.320;2023-02-18T07:20:29;11.27;;;7.27;;
9960;SDS011;5021;51.506;11.320;2023-02-18T07:22:55;9.83;;;7.60;;
9960;SDS011;5021;51.506;11.320;2023-02-18T07:25:21;11.83;;;8.57;;
9960;SDS011;5021;51.506;11.320;2023-02-18T07:27:47;11.83;;;9.03;;
9960;SDS011;5021;51.506;11.320;2023-02-18T07:30:13;12.37;;;8.77;;
9960;SDS011;5021;51.506;11.320;2023-02-18T07:32:39;12.17;;;9.20;;
9960;SDS011;5021;51.506;11.320;2023-02-18T07:35:05;13.13;;;9.33;;
9960;SDS011;5021;51.506;11.320;2023-02-18T07:37:32;12.50;;;8.97;;
9960;SDS011;5021;51.506;11.320;2023-02-18T07:39:58;9.37;;;8.27;;
9960;SDS011;5021;51.506;11.320;2023-02-18T07:42:24;12.97;;;9.30;;
9960;SDS011;5021;51.506;11.320;2023-02-18T07:44:49;10.20;;;8.50;;
9960;SDS011;5021;51.506;11.320;2023-02-18T07:47:15;11.17;;;8.57;;
9960;SDS011;5021;51.506;11.320;2023-02-18T07:49:43;12.20;;;9.03;;
9960;SDS011;5021;51.506;11.320;2023-02-18T07:52:09;10.90;;;8.97;;
9960;SDS011;5021;51.506;11.320;2023-02-18T07:54:35;10.73;;;8.40;;
9960;SDS011;5021;51.506;11.320;2023-02-18T07:57:01;13.27;;;9.33;;
9960;SDS011;5021;51.506;11.320;2023-02-18T07:59:27;10.73;;;8.60;;
9960;SDS011;5021;51.506;11.320;2023-02-18T08:01:53;8.80;;;7.80;;
9960;SDS011;5021;51.506;11.320;2023-02-18T08:04:19;9.43;;;7.53;;
9960;SDS011;5021;51.506;11.320;2023-02-18T08:06:46;8.83;;;7.93;;
9960;SDS011;5021;51.506;11.320;2023-02-18T08:09:12;8.07;;;6.90;;
9960;SDS011;5021;51.506;11.320;2023-02-18T08:11:38;9.53;;;6.87;;
9960;SDS011;5021;51.506;11.320;2023-02-18T08:14:04;6.87;;;5.30;;
9960;SDS011;5021;51.506;11.320;2023-02-18T08:16:30;6.53;;;5.87;;
9960;SDS011;5021;51.506;11.320;2023-02-18T08:18:56;5.10;;;4.60;;
9960;SDS011;5021;51.506;11.320;2023-02-18T08:21:23;4.63;;;4.23;;
9960;SDS011;5021;51.506;11.320;2023-02-18T08:23:49;5.00;;;4.50;;
9960;SDS011;5021;51.506;11.320;2023-02-18T08:26:15;4.67;;;4.13;;
9960;SDS011;5021;51.506;11.320;2023-02-18T08:28:42;3.47;;;3.17;;
9960;SDS011;5021;51.506;11.320;2023-02-18T08:31:13;3.63;;;3.30;;
9960;SDS011;5021;51.506;11.320;2023-02-18T08:33:40;2.97;;;2.50;;
9960;SDS011;5021;51.506;11.320;2023-02-18T08:36:06;3.33;;;2.60;;
9960;SDS011;5021;51.506;11.320;2023-02-18T08:38:34;2.40;;;2.20;;
9960;SDS011;5021;51.506;11.320;2023-02-18T08:41:01;2.30;;;2.10;;
9960;SDS011;5021;51.506;11.320;2023-02-18T08:43:27;3.13;;;1.90;;
9960;SDS011;5021;51.506;11.320;2023-02-18T08:45:53;2.30;;;2.10;;
9960;SDS011;5021;51.506;11.320;2023-02-18T08:48:19;1.80;;;1.70;;
9960;SDS011;5021;51.506;11.320;2023-02-18T08:50:45;2.27;;;1.80;;
9960;SDS011;5021;51.506;11.320;2023-02-18T08:53:11;2.27;;;1.97;;
9960;SDS011;5021;51.506;11.320;2023-02-18T08:55:38;3.00;;;1.50;;
9960;SDS011;5021;51.506;11.320;2023-02-18T08:58:04;1.63;;;1.50;;
9960;SDS011;5021;51.506;11.320;2023-02-18T09:00:31;1.67;;;1.50;;
9960;SDS011;5021;51.506;11.320;2023-02-18T09:02:57;1.50;;;1.40;;
9960;SDS011;5021;51.506;11.320;2023-02-18T09:05:23;1.40;;;1.30;;
9960;SDS011;5021;51.506;11.320;2023-02-18T09:07:49;1.87;;;1.40;;
9960;SDS011;5021;51.506;11.320;2023-02-18T09:10:15;1.17;;;1.07;;
9960;SDS011;5021;51.506;11.320;2023-02-18T09:12:41;1.93;;;1.40;;
9960;SDS011;5021;51.506;11.320;2023-02-18T09:15:07;1.40;;;1.30;;
9960;SDS011;5021;51.506;11.320;2023-02-18T09:17:33;1.23;;;1.13;;
9960;SDS011;5021;51.506;11.320;2023-02-18T09:19:59;1.00;;;1.00;;
9960;SDS011;5021;51.506;11.320;2023-02-18T09:22:25;1.20;;;1.10;;
9960;SDS011;5021;51.506;11.320;2023-02-18T09:24:50;0.80;;;0.80;;
9960;SDS011;5021;51.506;11.320;2023-02-18T09:27:16;0.90;;;0.90;;
9960;SDS011;5021;51.506;11.320;2023-02-18T09:29:42;0.80;;;0.80;;
9960;SDS011;5021;51.506;11.320;2023-02-18T09:32:08;0.60;;;0.60;;
9960;SDS011;5021;51.506;11.320;2023-02-18T09:34:36;0.70;;;0.70;;
9960;SDS011;5021;51.506;11.320;2023-02-18T09:37:02;1.10;;;1.10;;
9960;SDS011;5021;51.506;11.320;2023-02-18T09:39:28;1.80;;;1.50;;
9960;SDS011;5021;51.506;11.320;2023-02-18T09:41:54;1.37;;;1.10;;
9960;SDS011;5021;51.506;11.320;2023-02-18T09:44:24;1.07;;;0.97;;
9960;SDS011;5021;51.506;11.320;2023-02-18T09:47:01;0.70;;;0.60;;
9960;SDS011;5021;51.506;11.320;2023-02-18T09:49:29;0.73;;;0.73;;
9960;SDS011;5021;51.506;11.320;2023-02-18T09:52:08;0.60;;;0.60;;
9960;SDS011;5021;51.506;11.320;2023-02-18T09:54:35;0.70;;;0.70;;
9960;SDS011;5021;51.506;11.320;2023-02-18T09:57:02;0.50;;;0.50;;
9960;SDS011;5021;51.506;11.320;2023-02-18T09:59:28;0.70;;;0.53;;
9960;SDS011;5021;51.506;11.320;2023-02-18T10:01:55;0.60;;;0.60;;
9960;SDS011;5021;51.506;11.320;2023-02-18T10:04:29;0.70;;;0.60;;
9960;SDS011;5021;51.506;11.320;2023-02-18T10:06:56;0.50;;;0.50;;
9960;SDS011;5021;51.506;11.320;2023-02-18T10:09:35;0.77;;;0.60;;
9960;SDS011;5021;51.506;11.320;2023-02-18T10:12:15;1.33;;;0.60;;
9960;SDS011;5021;51.506;11.320;2023-02-18T10:14:42;0.80;;;0.80;;
9960;SDS011;5021;51.506;11.320;2023-02-18T10:17:09;0.60;;;0.60;;
9960;SDS011;5021;51.506;11.320;2023-02-18T10:19:37;1.50;;;0.50;;
9960;SDS011;5021;51.506;11.320;2023-02-18T10:22:07;1.63;;;1.47;;
9960;SDS011;5021;51.506;11.320;2023-02-18T10:27:00;0.70;;;0.70;;
9960;SDS011;5021;51.506;11.320;2023-02-18T10:29:28;1.17;;;0.90;;
9960;SDS011;5021;51.506;11.320;2023-02-18T10:34:41;1.10;;;0.90;;
9960;SDS011;5021;51.506;11.320;2023-02-18T10:42:29;2.00;;;0.63;;
9960;SDS011;5021;51.506;11.320;2023-02-18T10:47:36;0.40;;;0.40;;
9960;SDS011;5021;51.506;11.320;2023-02-18T10:50:17;0.60;;;0.57;;
9960;SDS011;5021;51.506;11.320;2023-02-18T10:52:50;1.73;;;0.70;;
9960;SDS011;5021;51.506;11.320;2023-02-18T10:55:17;0.60;;;0.60;;
9960;SDS011;5021;51.506;11.320;2023-02-18T10:57:50;0.70;;;0.70;;
9960;SDS011;5021;51.506;11.320;2023-02-18T11:00:20;0.50;;;0.50;;
9960;SDS011;5021;51.506;11.320;2023-02-18T11:05:35;0.60;;;0.60;;
9960;SDS011;5021;51.506;11.320;2023-02-18T11:08:02;0.50;;;0.50;;
9960;SDS011;5021;51.506;11.320;2023-02-18T11:10:33;0.77;;;0.50;;
9960;SDS011;5021;51.506;11.320;2023-02-18T11:13:04;0.50;;;0.50;;
9960;SDS011;5021;51.506;11.320;2023-02-18T11:15:31;0.40;;;0.40;;
9960;SDS011;5021;51.506;11.320;2023-02-18T11:18:10;2.63;;;1.07;;
9960;SDS011;5021;51.506;11.320;2023-02-18T11:20:37;1.40;;;0.83;;
9960;SDS011;5021;51.506;11.320;2023-02-18T11:23:15;0.60;;;0.60;;
9960;SDS011;5021;51.506;11.320;2023-02-18T11:25:52;0.70;;;0.70;;
9960;SDS011;5021;51.506;11.320;2023-02-18T11:30:45;0.70;;;0.70;;
9960;SDS011;5021;51.506;11.320;2023-02-18T11:33:17;1.33;;;0.90;;
9960;SDS011;5021;51.506;11.320;2023-02-18T11:35:50;1.07;;;0.80;;
9960;SDS011;5021;51.506;11.320;2023-02-18T11:38:19;1.43;;;0.80;;
9960;SDS011;5021;51.506;11.320;2023-02-18T11:40:54;1.33;;;1.10;;
9960;SDS011;5021;51.506;11.320;2023-02-18T11:43:21;4.40;;;1.80;;
9960;SDS011;5021;51.506;11.320;2023-02-18T11:45:47;2.13;;;1.63;;
9960;SDS011;5021;51.506;11.320;2023-02-18T11:48:16;0.80;;;0.80;;
9960;SDS011;5021;51.506;11.320;2023-02-18T11:50:43;0.50;;;0.50;;
9960;SDS011;5021;51.506;11.320;2023-02-18T11:53:26;1.13;;;0.90;;
9960;SDS011;5021;51.506;11.320;2023-02-18T11:55:54;0.80;;;0.80;;
9960;SDS011;5021;51.506;11.320;2023-02-18T11:58:20;2.23;;;1.10;;
9960;SDS011;5021;51.506;11.320;2023-02-18T12:00:47;1.00;;;0.90;;
9960;SDS011;5021;51.506;11.320;2023-02-18T12:05:50;0.60;;;0.60;;
9960;SDS011;5021;51.506;11.320;2023-02-18T12:08:18;1.90;;;1.43;;
9960;SDS011;5021;51.506;11.320;2023-02-18T12:10:52;1.00;;;1.00;;
9960;SDS011;5021;51.506;11.320;2023-02-18T12:13:26;1.30;;;1.10;;
9960;SDS011;5021;51.506;11.320;2023-02-18T12:18:59;1.57;;;1.10;;
9960;SDS011;5021;51.506;11.320;2023-02-18T12:24:16;1.57;;;1.20;;
9960;SDS011;5021;51.506;11.320;2023-02-18T12:36:57;0.90;;;0.90;;
9960;SDS011;5021;51.506;11.320;2023-02-18T12:39:33;1.33;;;1.17;;
9960;SDS011;5021;51.506;11.320;2023-02-18T12:44:53;1.17;;;1.00;;
9960;SDS011;5021;51.506;11.320;2023-02-18T12:47:30;1.20;;;1.10;;
9960;SDS011;5021;51.506;11.320;2023-02-18T12:50:02;1.33;;;1.20;;
9960;SDS011;5021;51.506;11.320;2023-02-18T12:55:20;2.53;;;1.30;;
9960;SDS011;5021;51.506;11.320;2023-02-18T13:05:44;1.10;;;1.00;;
9960;SDS011;5021;51.506;11.320;2023-02-18T13:11:05;1.07;;;1.07;;
9960;SDS011;5021;51.506;11.320;2023-02-18T13:13:39;3.37;;;1.60;;
9960;SDS011;5021;51.506;11.320;2023-02-18T13:16:10;1.30;;;1.10;;
9960;SDS011;5021;51.506;11.320;2023-02-18T13:18:42;1.47;;;1.37;;
9960;SDS011;5021;51.506;11.320;2023-02-18T13:21:14;1.63;;;1.53;;
9960;SDS011;5021;51.506;11.320;2023-02-18T13:23:51;1.67;;;1.40;;
9960;SDS011;5021;51.506;11.320;2023-02-18T13:26:17;1.53;;;1.27;;
9960;SDS011;5021;51.506;11.320;2023-02-18T13:33:56;1.30;;;1.20;;
9960;SDS011;5021;51.506;11.320;2023-02-18T13:36:34;2.33;;;1.50;;
9960;SDS011;5021;51.506;11.320;2023-02-18T13:39:05;1.53;;;1.30;;
9960;SDS011;5021;51.506;11.320;2023-02-18T13:41:50;1.40;;;1.30;;
9960;SDS011;5021;51.506;11.320;2023-02-18T13:46:46;1.50;;;1.40;;
9960;SDS011;5021;51.506;11.320;2023-02-18T13:49:13;2.37;;;1.70;;
9960;SDS011;5021;51.506;11.320;2023-02-18T13:51:45;1.83;;;1.40;;
9960;SDS011;5021;51.506;11.320;2023-02-18T13:59:22;2.83;;;1.87;;
9960;SDS011;5021;51.506;11.320;2023-02-18T14:01:51;2.13;;;1.60;;
9960;SDS011;5021;51.506;11.320;2023-02-18T14:09:46;1.63;;;1.40;;
9960;SDS011;5021;51.506;11.320;2023-02-18T14:12:16;2.00;;;1.80;;
9960;SDS011;5021;51.506;11.320;2023-02-18T14:14:42;1.90;;;1.70;;
9960;SDS011;5021;51.506;11.320;2023-02-18T14:22:30;2.10;;;1.70;;
9960;SDS011;5021;51.506;11.320;2023-02-18T14:27:28;2.30;;;2.00;;
9960;SDS011;5021;51.506;11.320;2023-02-18T14:29:54;2.87;;;2.00;;
9960;SDS011;5021;51.506;11.320;2023-02-18T14:32:27;2.13;;;1.93;;
9960;SDS011;5021;51.506;11.320;2023-02-18T14:35:17;3.37;;;2.60;;
9960;SDS011;5021;51.506;11.320;2023-02-18T14:40:24;2.80;;;2.00;;
9960;SDS011;5021;51.506;11.320;2023-02-18T14:43:06;2.70;;;2.17;;
9960;SDS011;5021;51.506;11.320;2023-02-18T14:48:24;3.77;;;2.00;;
9960;SDS011;5021;51.506;11.320;2023-02-18T14:50:53;2.20;;;2.00;;
9960;SDS011;5021;51.506;11.320;2023-02-18T14:53:21;2.20;;;1.90;;
9960;SDS011;5021;51.506;11.320;2023-02-18T14:55:48;1.87;;;1.70;;
9960;SDS011;5021;51.506;11.320;2023-02-18T14:58:35;1.67;;;1.57;;
9960;SDS011;5021;51.506;11.320;2023-02-18T15:01:05;1.70;;;1.60;;
9960;SDS011;5021;51.506;11.320;2023-02-18T15:03:31;1.80;;;1.70;;
9960;SDS011;5021;51.506;11.320;2023-02-18T15:05:57;2.00;;;1.80;;
9960;SDS011;5021;51.506;11.320;2023-02-18T15:08:24;2.17;;;1.93;;
9960;SDS011;5021;51.506;11.320;2023-02-18T15:10:51;1.60;;;1.50;;
9960;SDS011;5021;51.506;11.320;2023-02-18T15:13:20;1.63;;;1.53;;
9960;SDS011;5021;51.506;11.320;2023-02-18T15:15:51;1.80;;;1.70;;
9960;SDS011;5021;51.506;11.320;2023-02-18T15:18:19;1.70;;;1.60;;
9960;SDS011;5021;51.506;11.320;2023-02-18T15:20:46;2.23;;;1.53;;
9960;SDS011;5021;51.506;11.320;2023-02-18T15:23:12;1.60;;;1.50;;
9960;SDS011;5021;51.506;11.320;2023-02-18T15:25:40;2.20;;;1.70;;
9960;SDS011;5021;51.506;11.320;2023-02-18T15:28:18;1.80;;;1.70;;
9960;SDS011;5021;51.506;11.320;2023-02-18T15:30:45;1.60;;;1.50;;
9960;SDS011;5021;51.506;11.320;2023-02-18T15:33:11;3.13;;;1.60;;
9960;SDS011;5021;51.506;11.320;2023-02-18T15:35:39;1.63;;;1.53;;
9960;SDS011;5021;51.506;11.320;2023-02-18T15:38:12;2.20;;;1.60;;
9960;SDS011;5021;51.506;11.320;2023-02-18T15:40:39;2.40;;;2.10;;
9960;SDS011;5021;51.506;11.320;2023-02-18T15:43:05;1.80;;;1.70;;
9960;SDS011;5021;51.506;11.320;2023-02-18T15:45:35;1.83;;;1.60;;
9960;SDS011;5021;51.506;11.320;2023-02-18T15:48:03;2.47;;;1.77;;
9960;SDS011;5021;51.506;11.320;2023-02-18T15:50:34;1.87;;;1.70;;
9960;SDS011;5021;51.506;11.320;2023-02-18T15:53:13;2.50;;;2.30;;
9960;SDS011;5021;51.506;11.320;2023-02-18T15:55:41;2.27;;;2.07;;
9960;SDS011;5021;51.506;11.320;2023-02-18T15:58:15;2.30;;;2.10;;
9960;SDS011;5021;51.506;11.320;2023-02-18T16:03:15;3.23;;;2.20;;
9960;SDS011;5021;51.506;11.320;2023-02-18T16:05:44;2.20;;;2.00;;
9960;SDS011;5021;51.506;11.320;2023-02-18T16:08:14;2.33;;;2.13;;
9960;SDS011;5021;51.506;11.320;2023-02-18T16:10:48;5.53;;;4.93;;
9960;SDS011;5021;51.506;11.320;2023-02-18T16:13:15;2.57;;;2.37;;
9960;SDS011;5021;51.506;11.320;2023-02-18T16:15:42;3.40;;;2.70;;
9960;SDS011;5021;51.506;11.320;2023-02-18T16:18:21;3.50;;;2.80;;
9960;SDS011;5021;51.506;11.320;2023-02-18T16:20:52;2.97;;;2.20;;
9960;SDS011;5021;51.506;11.320;2023-02-18T16:23:24;3.30;;;2.80;;
9960;SDS011;5021;51.506;11.320;2023-02-18T16:25:50;2.90;;;2.63;;
9960;SDS011;5021;51.506;11.320;2023-02-18T16:28:23;3.00;;;2.53;;
9960;SDS011;5021;51.506;11.320;2023-02-18T16:30:51;3.47;;;2.93;;
9960;SDS011;5021;51.506;11.320;2023-02-18T16:33:17;3.83;;;2.63;;
9960;SDS011;5021;51.506;11.320;2023-02-18T16:35:44;3.43;;;2.50;;
9960;SDS011;5021;51.506;11.320;2023-02-18T16:38:12;3.33;;;2.57;;
9960;SDS011;5021;51.506;11.320;2023-02-18T16:40:40;3.20;;;2.90;;
9960;SDS011;5021;51.506;11.320;2023-02-18T16:43:11;4.10;;;3.60;;
9960;SDS011;5021;51.506;11.320;2023-02-18T16:45:46;3.13;;;2.83;;
9960;SDS011;5021;51.506;11.320;2023-02-18T16:50:44;2.73;;;2.53;;
9960;SDS011;5021;51.506;11.320;2023-02-18T16:53:11;3.00;;;2.60;;
9960;SDS011;5021;51.506;11.320;2023-02-18T16:55:37;3.07;;;2.70;;
9960;SDS011;5021;51.506;11.320;2023-02-18T16:58:03;3.43;;;2.63;;
9960;SDS011;5021;51.506;11.320;2023-02-18T17:00:29;4.40;;;3.10;;
9960;SDS011;5021;51.506;11.320;2023-02-18T17:02:55;3.13;;;2.83;;
9960;SDS011;5021;51.506;11.320;2023-02-18T17:05:27;3.30;;;3.00;;
9960;SDS011;5021;51.506;11.320;2023-02-18T17:07:54;5.60;;;4.13;;
9960;SDS011;5021;51.506;11.320;2023-02-18T17:10:20;4.20;;;2.93;;